createdAt,value
2018-12-16T00:00:53.627Z,29.73
2018-12-16T00:03:21.158Z,30.60
2018-12-16T00:05:48.699Z,33.00
2018-12-16T00:08:16.282Z,34.10
2018-12-16T00:10:43.877Z,29.53
2018-12-16T00:13:11.694Z,30.83
2018-12-16T00:15:39.496Z,30.80
2018-12-16T00:18:07.218Z,30.13
2018-12-16T00:20:35.018Z,31.23
2018-12-16T00:23:02.741Z,30.80
2018-12-16T00:25:30.310Z,30.73
2018-12-16T00:27:57.892Z,34.07
2018-12-16T00:30:26.355Z,34.47
2018-12-16T00:32:54.184Z,29.70
2018-12-16T00:35:22.314Z,34.50
2018-12-16T00:37:49.850Z,29.83
2018-12-16T00:40:17.777Z,31.43
2018-12-16T00:42:45.711Z,32.07
2018-12-16T00:45:13.431Z,31.73
2018-12-16T00:47:41.005Z,32.43
2018-12-16T00:50:08.714Z,32.10
2018-12-16T00:55:11.456Z,32.83
2018-12-16T00:57:39.067Z,29.40
2018-12-16T01:00:11.961Z,31.10
2018-12-16T01:02:42.109Z,32.40
2018-12-16T01:05:10.118Z,33.43
2018-12-16T01:07:37.809Z,34.07
2018-12-16T01:10:05.401Z,33.80
2018-12-16T01:12:33.070Z,34.43
2018-12-16T01:15:00.627Z,35.57
2018-12-16T01:17:28.225Z,32.33
2018-12-16T01:19:55.809Z,34.93
2018-12-16T01:22:23.992Z,34.30
2018-12-16T01:24:51.599Z,32.87
2018-12-16T01:27:19.220Z,32.73
2018-12-16T01:29:47.106Z,30.70
2018-12-16T01:32:14.903Z,34.57
2018-12-16T01:34:42.462Z,31.07
2018-12-16T01:37:10.013Z,33.07
2018-12-16T01:39:37.566Z,31.70
2018-12-16T01:42:05.134Z,33.37
2018-12-16T01:44:32.884Z,36.33
2018-12-16T01:47:00.710Z,33.53
2018-12-16T01:49:28.588Z,31.07
2018-12-16T01:51:56.449Z,32.63
2018-12-16T01:54:24.366Z,32.07
2018-12-16T01:56:52.280Z,30.90
2018-12-16T01:59:20.154Z,31.17
2018-12-16T02:01:53.691Z,31.63
2018-12-16T02:04:21.538Z,32.40
2018-12-16T02:06:49.099Z,31.57
2018-12-16T02:09:16.705Z,28.83
2018-12-16T02:11:44.246Z,28.17
2018-12-16T02:14:11.846Z,30.47
2018-12-16T02:16:39.367Z,31.57
2018-12-16T02:19:07.256Z,30.87
2018-12-16T02:21:34.893Z,32.20
2018-12-16T02:24:02.543Z,30.23
2018-12-16T02:26:30.210Z,30.80
2018-12-16T02:28:57.769Z,31.73
2018-12-16T02:31:25.633Z,28.57
2018-12-16T02:33:53.844Z,30.00
2018-12-16T02:36:21.382Z,28.30
2018-12-16T02:38:48.924Z,27.63
2018-12-16T02:41:16.634Z,31.20
2018-12-16T02:43:44.473Z,29.07
2018-12-16T02:46:12.317Z,31.90
2018-12-16T02:48:40.079Z,29.93
2018-12-16T02:51:07.847Z,28.03
2018-12-16T02:53:35.487Z,27.63
2018-12-16T02:56:03.059Z,29.37
2018-12-16T02:58:30.619Z,32.27
2018-12-16T03:00:58.243Z,30.77
2018-12-16T03:03:25.975Z,28.77
2018-12-16T03:05:53.847Z,28.90
2018-12-16T03:08:21.527Z,30.93
2018-12-16T03:10:49.394Z,30.03
2018-12-16T03:13:17.261Z,31.60
2018-12-16T03:15:45.263Z,30.23
2018-12-16T03:18:12.851Z,30.07
2018-12-16T03:20:40.400Z,28.57
2018-12-16T03:23:12.386Z,27.63
2018-12-16T03:25:37.571Z,30.20
2018-12-16T03:28:05.114Z,33.03
2018-12-16T03:30:32.665Z,29.60
2018-12-16T03:33:00.356Z,33.13
2018-12-16T03:35:27.982Z,31.00
2018-12-16T03:37:55.744Z,32.77
2018-12-16T03:40:23.566Z,30.87
2018-12-16T03:42:51.423Z,30.50
2018-12-16T03:45:19.207Z,31.47
2018-12-16T03:47:47.132Z,33.37
2018-12-16T03:50:14.707Z,31.67
2018-12-16T03:52:42.278Z,28.67
2018-12-16T03:55:09.847Z,29.43
2018-12-16T03:57:37.394Z,31.83
2018-12-16T04:00:05.621Z,29.30
2018-12-16T04:02:33.508Z,31.90
2018-12-16T04:05:01.349Z,31.63
2018-12-16T04:07:29.047Z,32.70
2018-12-16T04:09:56.745Z,31.07
2018-12-16T04:12:24.653Z,33.20
2018-12-16T04:14:52.206Z,32.50
2018-12-16T04:17:19.816Z,30.77
2018-12-16T04:19:47.354Z,31.83
2018-12-16T04:22:14.939Z,34.57
2018-12-16T04:24:42.594Z,33.03
2018-12-16T04:27:10.434Z,35.27
2018-12-16T04:29:38.344Z,32.50
2018-12-16T04:32:06.209Z,34.93
2018-12-16T04:34:34.062Z,31.07
2018-12-16T04:37:01.611Z,34.83
2018-12-16T04:39:29.191Z,36.87
2018-12-16T04:41:56.742Z,38.63
2018-12-16T04:44:24.291Z,36.70
2018-12-16T04:46:52.179Z,36.63
2018-12-16T04:49:20.041Z,36.30
2018-12-16T04:51:47.959Z,33.87
2018-12-16T04:54:15.826Z,34.97
2018-12-16T04:56:43.642Z,37.73
2018-12-16T04:59:11.181Z,39.23
2018-12-16T05:01:38.746Z,34.97
2018-12-16T05:04:06.291Z,38.27
2018-12-16T05:06:33.885Z,37.50
2018-12-16T05:09:01.692Z,34.83
2018-12-16T05:11:29.460Z,37.77
2018-12-16T05:13:57.209Z,36.73
2018-12-16T05:16:25.038Z,37.03
2018-12-16T05:18:52.618Z,37.83
2018-12-16T05:21:20.213Z,34.77
2018-12-16T05:23:47.816Z,36.07
2018-12-16T05:26:15.370Z,37.87
2018-12-16T05:28:43.250Z,37.50
2018-12-16T05:31:10.868Z,37.87
2018-12-16T05:33:38.721Z,42.00
2018-12-16T05:36:06.442Z,39.93
2018-12-16T05:38:34.107Z,39.10
2018-12-16T05:41:01.610Z,35.03
2018-12-16T05:43:29.176Z,43.07
2018-12-16T05:45:56.771Z,39.43
2018-12-16T05:48:24.713Z,39.43
2018-12-16T05:50:52.569Z,41.60
2018-12-16T05:53:20.352Z,39.87
2018-12-16T05:55:48.201Z,43.67
2018-12-16T05:58:15.965Z,42.27
2018-12-16T06:00:43.529Z,49.93
2018-12-16T06:03:11.122Z,40.43
2018-12-16T06:05:38.710Z,38.67
2018-12-16T06:08:06.303Z,41.63
2018-12-16T06:10:34.278Z,42.53
2018-12-16T06:13:02.182Z,41.90
2018-12-16T06:15:29.873Z,42.30
2018-12-16T06:17:57.769Z,44.83
2018-12-16T06:20:25.611Z,42.73
2018-12-16T06:22:53.177Z,38.13
2018-12-16T06:25:20.714Z,40.80
2018-12-16T06:27:48.254Z,38.10
2018-12-16T06:30:16.362Z,42.47
2018-12-16T06:32:43.993Z,40.27
2018-12-16T06:35:11.874Z,43.37
2018-12-16T06:37:39.545Z,37.27
2018-12-16T06:40:07.330Z,40.17
2018-12-16T06:42:35.078Z,38.60
2018-12-16T06:45:02.771Z,39.33
2018-12-16T06:47:30.292Z,38.80
2018-12-16T06:49:57.925Z,40.63
2018-12-16T06:52:25.470Z,40.30
2018-12-16T06:54:53.076Z,35.33
2018-12-16T06:57:21.061Z,39.53
2018-12-16T06:59:48.959Z,42.57
2018-12-16T07:02:16.777Z,46.30
2018-12-16T07:04:44.627Z,38.20
2018-12-16T07:07:12.454Z,44.67
2018-12-16T07:09:40.018Z,39.73
2018-12-16T07:12:07.539Z,40.90
2018-12-16T07:14:35.138Z,51.80
2018-12-16T07:17:02.704Z,44.73
2018-12-16T07:19:30.553Z,42.40
2018-12-16T07:21:58.698Z,42.47
2018-12-16T07:24:26.716Z,47.17
2018-12-16T07:26:54.685Z,47.23
2018-12-16T07:29:22.477Z,45.33
2018-12-16T07:31:50.226Z,48.00
2018-12-16T07:34:18.057Z,46.63
2018-12-16T07:36:45.757Z,46.77
2018-12-16T07:39:13.578Z,49.40
2018-12-16T07:41:41.128Z,43.10
2018-12-16T07:44:08.698Z,44.97
2018-12-16T07:46:36.518Z,50.53
2018-12-16T07:49:04.475Z,53.50
2018-12-16T07:51:32.449Z,51.77
2018-12-16T07:54:00.322Z,46.60
2018-12-16T07:56:28.131Z,44.00
2018-12-16T07:58:55.940Z,46.77
2018-12-16T08:01:23.625Z,52.43
2018-12-16T08:03:51.194Z,46.83
2018-12-16T08:06:18.906Z,47.43
2018-12-16T08:08:46.609Z,51.07
2018-12-16T08:11:14.238Z,47.67
2018-12-16T08:13:42.042Z,40.77
2018-12-16T08:16:09.795Z,42.23
2018-12-16T08:18:37.518Z,47.43
2018-12-16T08:21:05.268Z,49.10
2018-12-16T08:23:32.893Z,44.17
2018-12-16T08:26:00.425Z,43.63
2018-12-16T08:28:28.002Z,41.97
2018-12-16T08:30:55.561Z,40.83
2018-12-16T08:33:23.276Z,41.53
2018-12-16T08:35:51.074Z,46.33
2018-12-16T08:38:18.745Z,43.87
2018-12-16T08:40:46.382Z,44.37
2018-12-16T08:43:13.917Z,45.40
2018-12-16T08:45:41.463Z,39.60
2018-12-16T08:48:09.015Z,41.97
2018-12-16T08:50:36.662Z,39.60
2018-12-16T08:53:04.651Z,36.33
2018-12-16T08:55:32.437Z,37.90
2018-12-16T08:58:00.084Z,50.70
2018-12-16T09:00:27.745Z,42.53
2018-12-16T09:02:55.482Z,36.33
2018-12-16T09:05:23.058Z,37.10
2018-12-16T09:07:50.593Z,36.93
2018-12-16T09:10:18.154Z,38.47
2018-12-16T09:12:45.718Z,43.57
2018-12-16T09:15:13.381Z,40.73
2018-12-16T09:17:41.062Z,47.00
2018-12-16T09:20:08.776Z,42.90
2018-12-16T09:22:36.522Z,52.50
2018-12-16T09:25:04.256Z,37.07
2018-12-16T09:27:31.794Z,54.63
2018-12-16T09:29:59.357Z,41.67
2018-12-16T09:32:26.909Z,50.00
2018-12-16T09:34:54.739Z,30.90
2018-12-16T09:37:22.624Z,43.20
2018-12-16T09:39:50.329Z,63.97
2018-12-16T09:42:18.089Z,55.53
2018-12-16T09:44:46.155Z,53.17
2018-12-16T09:47:13.717Z,59.37
2018-12-16T09:49:41.390Z,45.53
2018-12-16T09:52:08.964Z,45.70
2018-12-16T09:54:36.607Z,41.70
2018-12-16T09:57:04.499Z,73.20
2018-12-16T09:59:33.100Z,41.60
2018-12-16T10:02:01.458Z,35.47
2018-12-16T10:04:29.329Z,46.27
2018-12-16T10:06:57.163Z,41.30
2018-12-16T10:09:24.995Z,46.90
2018-12-16T10:11:52.626Z,36.77
2018-12-16T10:14:21.959Z,47.17
2018-12-16T10:16:49.520Z,45.33
2018-12-16T10:19:17.091Z,53.93
2018-12-16T10:21:44.762Z,34.23
2018-12-16T10:24:12.414Z,72.63
2018-12-16T10:26:40.576Z,46.23
2018-12-16T10:29:08.221Z,39.77
2018-12-16T10:31:36.025Z,85.43
2018-12-16T10:34:03.872Z,49.00
2018-12-16T10:36:31.447Z,68.80
2018-12-16T10:38:58.993Z,50.00
2018-12-16T10:41:26.575Z,55.70
2018-12-16T10:43:54.437Z,33.90
2018-12-16T10:46:22.307Z,35.00
2018-12-16T10:48:50.159Z,38.97
2018-12-16T10:51:18.010Z,70.70
2018-12-16T10:53:45.577Z,30.70
2018-12-16T10:56:13.217Z,55.40
2018-12-16T10:58:40.850Z,44.23
2018-12-16T11:01:14.071Z,74.60
2018-12-16T11:03:41.824Z,56.90
2018-12-16T11:06:10.692Z,41.10
2018-12-16T11:08:38.928Z,50.80
2018-12-16T11:11:06.814Z,43.50
2018-12-16T11:13:34.571Z,34.97
2018-12-16T11:16:02.482Z,45.17
2018-12-16T11:18:30.322Z,39.47
2018-12-16T11:20:58.160Z,44.27
2018-12-16T11:23:26.402Z,38.17
2018-12-16T11:25:55.258Z,83.13
2018-12-16T11:28:22.923Z,32.40
2018-12-16T11:30:50.622Z,40.87
2018-12-16T11:33:18.206Z,35.57
2018-12-16T11:35:45.934Z,51.57
2018-12-16T11:38:13.574Z,48.27
2018-12-16T11:40:41.418Z,37.00
2018-12-16T11:43:08.991Z,41.43
2018-12-16T11:45:37.035Z,59.97
2018-12-16T11:48:05.074Z,48.43
2018-12-16T11:50:32.910Z,54.20
2018-12-16T11:53:00.794Z,47.23
2018-12-16T11:55:28.917Z,56.67
2018-12-16T11:57:56.619Z,43.90
2018-12-16T12:00:24.258Z,48.00
2018-12-16T12:02:51.884Z,51.53
2018-12-16T12:05:19.594Z,49.87
2018-12-16T12:07:47.163Z,60.23
2018-12-16T12:10:14.806Z,44.63
2018-12-16T12:12:42.397Z,45.23
2018-12-16T12:15:10.175Z,40.70
2018-12-16T12:17:37.954Z,57.27
2018-12-16T12:20:05.965Z,70.33
2018-12-16T12:22:33.796Z,43.90
2018-12-16T12:25:01.711Z,48.50
2018-12-16T12:27:29.686Z,48.70
2018-12-16T12:29:57.359Z,50.87
2018-12-16T12:32:25.049Z,43.13
2018-12-16T12:34:52.657Z,86.90
2018-12-16T12:37:20.185Z,35.60
2018-12-16T12:39:47.833Z,42.87
2018-12-16T12:42:15.646Z,43.70
2018-12-16T12:44:43.386Z,44.10
2018-12-16T12:47:11.473Z,46.57
2018-12-16T12:49:44.925Z,44.23
2018-12-16T12:52:08.959Z,52.40
2018-12-16T12:54:36.624Z,39.80
2018-12-16T12:57:04.569Z,48.60
2018-12-16T12:59:32.906Z,49.53
2018-12-16T13:02:01.486Z,39.20
2018-12-16T13:04:29.267Z,53.50
2018-12-16T13:06:57.427Z,36.03
2018-12-16T13:09:25.555Z,42.50
2018-12-16T13:11:53.310Z,35.80
2018-12-16T13:14:21.006Z,52.97
2018-12-16T13:16:48.952Z,47.17
2018-12-16T13:19:16.887Z,50.27
2018-12-16T13:21:44.549Z,48.83
2018-12-16T13:24:12.167Z,36.63
2018-12-16T13:26:39.789Z,42.97
2018-12-16T13:29:07.378Z,40.10
2018-12-16T13:31:34.966Z,38.93
2018-12-16T13:34:02.790Z,41.23
2018-12-16T13:36:30.818Z,37.37
2018-12-16T13:38:58.738Z,39.40
2018-12-16T13:41:26.375Z,45.90
2018-12-16T13:43:54.545Z,43.37
2018-12-16T13:46:22.170Z,48.30
2018-12-16T13:48:49.815Z,42.37
2018-12-16T13:51:17.723Z,46.57
2018-12-16T13:53:45.301Z,39.47
2018-12-16T13:56:12.856Z,38.27
2018-12-16T13:58:40.529Z,41.73
2018-12-16T14:01:08.277Z,41.80
2018-12-16T14:03:35.911Z,41.80
2018-12-16T14:06:03.647Z,39.07
2018-12-16T14:08:31.501Z,48.53
2018-12-16T14:10:59.374Z,50.47
2018-12-16T14:13:27.201Z,50.80
2018-12-16T14:15:54.812Z,44.60
2018-12-16T14:18:22.381Z,43.53
2018-12-16T14:20:49.958Z,42.27
2018-12-16T14:23:17.714Z,55.97
2018-12-16T14:25:48.110Z,42.10
2018-12-16T14:28:15.030Z,46.80
2018-12-16T14:30:42.625Z,43.50
2018-12-16T14:33:10.386Z,42.33
2018-12-16T14:35:38.191Z,50.50
2018-12-16T14:38:06.310Z,35.53
2018-12-16T14:40:34.031Z,39.27
2018-12-16T14:43:01.754Z,36.03
2018-12-16T14:45:29.346Z,45.73
2018-12-16T14:47:56.910Z,45.67
2018-12-16T14:50:26.566Z,46.23
2018-12-16T14:52:54.161Z,44.47
2018-12-16T14:55:21.914Z,48.27
2018-12-16T14:57:49.622Z,39.47
2018-12-16T15:00:17.236Z,45.20
2018-12-16T15:02:44.781Z,44.93
2018-12-16T15:05:13.106Z,41.70
2018-12-16T15:07:41.301Z,35.97
2018-12-16T15:10:09.963Z,30.73
2018-12-16T15:12:37.881Z,36.73
2018-12-16T15:15:06.559Z,39.47
2018-12-16T15:17:34.645Z,32.53
2018-12-16T15:20:04.271Z,42.63
2018-12-16T15:22:31.854Z,40.23
2018-12-16T15:24:59.574Z,38.90
2018-12-16T15:27:27.504Z,37.67
2018-12-16T15:29:55.241Z,38.87
2018-12-16T15:32:22.850Z,39.10
2018-12-16T15:34:50.546Z,39.17
2018-12-16T15:37:18.094Z,39.73
2018-12-16T15:39:45.625Z,39.87
2018-12-16T15:42:13.237Z,40.43
2018-12-16T15:44:40.811Z,47.73
2018-12-16T15:47:08.438Z,39.70
2018-12-16T15:49:36.426Z,43.83
2018-12-16T15:57:05.307Z,47.90
2018-12-16T15:59:33.209Z,49.03
2018-12-16T16:02:00.924Z,49.33
2018-12-16T16:04:28.791Z,53.40
2018-12-16T16:06:56.574Z,52.57
2018-12-16T16:09:24.243Z,50.77
2018-12-16T16:11:51.906Z,51.40
2018-12-16T16:14:20.698Z,57.87
2018-12-16T16:16:48.333Z,52.77
2018-12-16T16:19:15.936Z,54.23
2018-12-16T16:21:43.542Z,57.00
2018-12-16T16:24:11.334Z,53.00
2018-12-16T16:26:39.178Z,53.17
2018-12-16T16:29:06.959Z,56.83
2018-12-16T16:31:34.962Z,54.70
2018-12-16T16:34:02.561Z,56.63
2018-12-16T16:36:30.205Z,60.33
2018-12-16T16:38:57.804Z,71.37
2018-12-16T16:41:25.615Z,54.27
2018-12-16T16:43:53.706Z,54.63
2018-12-16T16:46:21.615Z,55.10
2018-12-16T16:48:49.733Z,48.87
2018-12-16T16:51:17.607Z,48.33
2018-12-16T16:53:45.423Z,51.23
2018-12-16T16:56:13.054Z,52.03
2018-12-16T16:58:40.654Z,50.47
2018-12-16T17:01:08.255Z,48.63
2018-12-16T17:03:36.025Z,49.40
2018-12-16T17:06:03.782Z,53.57
2018-12-16T17:08:31.703Z,47.90
2018-12-16T17:10:59.559Z,49.40
2018-12-16T17:13:27.382Z,43.20
2018-12-16T17:15:55.222Z,49.13
2018-12-16T17:18:23.103Z,44.03
2018-12-16T17:20:50.760Z,46.67
2018-12-16T17:23:18.364Z,42.93
2018-12-16T17:25:53.500Z,46.90
2018-12-16T17:28:21.119Z,49.63
2018-12-16T17:30:48.710Z,47.37
2018-12-16T17:33:16.330Z,49.37
2018-12-16T17:35:43.935Z,52.40
2018-12-16T17:38:11.543Z,56.13
2018-12-16T17:40:39.380Z,47.30
2018-12-16T17:43:07.419Z,49.00
2018-12-16T17:46:26.374Z,51.47
2018-12-16T17:48:54.008Z,54.70
2018-12-16T17:51:21.819Z,58.07
2018-12-16T17:54:13.793Z,55.10
2018-12-16T17:56:41.577Z,44.93
2018-12-16T17:59:17.976Z,38.13
2018-12-16T18:10:13.975Z,34.73
2018-12-16T18:12:41.876Z,37.10
2018-12-16T18:15:09.718Z,39.37
2018-12-16T18:17:37.609Z,47.47
2018-12-16T18:20:06.381Z,44.03
2018-12-16T18:22:34.165Z,43.17
2018-12-16T18:25:02.047Z,43.30
2018-12-16T18:27:29.744Z,47.30
2018-12-16T18:29:57.406Z,49.60
2018-12-16T18:32:25.062Z,46.63
2018-12-16T18:34:52.755Z,57.97
2018-12-16T18:37:20.762Z,49.43
2018-12-16T18:39:48.687Z,49.13
2018-12-16T18:42:16.494Z,52.20
2018-12-16T18:44:44.201Z,53.93
2018-12-16T18:47:11.941Z,46.27
2018-12-16T18:49:39.580Z,60.10
2018-12-16T18:52:07.269Z,58.27
2018-12-16T18:54:34.891Z,52.67
2018-12-16T18:57:07.139Z,54.77
2018-12-16T18:59:32.194Z,52.43
2018-12-16T19:01:59.799Z,42.33
2018-12-16T19:04:27.401Z,47.13
2018-12-16T19:06:55.096Z,41.83
2018-12-16T19:09:22.837Z,42.70
2018-12-16T19:11:50.737Z,38.93
2018-12-16T19:14:18.589Z,40.40
2018-12-16T19:16:54.119Z,38.40
2018-12-16T19:19:44.273Z,43.60
2018-12-16T19:22:11.890Z,39.40
2018-12-16T19:24:39.666Z,31.73
2018-12-16T19:27:09.156Z,31.33
2018-12-16T19:29:36.801Z,28.10
2018-12-16T19:32:04.448Z,36.43
2018-12-16T19:34:32.177Z,33.83
2018-12-16T19:37:00.014Z,35.27
2018-12-16T19:39:27.914Z,35.57
2018-12-16T19:42:02.793Z,33.93
2018-12-16T19:44:30.627Z,29.83
2018-12-16T19:46:59.113Z,32.63
2018-12-16T19:49:27.147Z,36.50
2018-12-16T19:51:54.915Z,46.70
2018-12-16T19:54:22.830Z,36.77
2018-12-16T19:56:50.646Z,37.83
2018-12-16T19:59:18.577Z,30.60
2018-12-16T20:01:46.202Z,32.33
2018-12-16T20:04:19.096Z,34.80
2018-12-16T20:06:50.008Z,30.43
2018-12-16T20:09:17.717Z,33.57
2018-12-16T20:11:45.414Z,32.13
2018-12-16T20:14:13.075Z,34.37
2018-12-16T20:16:40.650Z,40.10
2018-12-16T20:19:08.246Z,35.30
2018-12-16T20:21:35.959Z,34.53
2018-12-16T20:24:03.901Z,41.30
2018-12-16T20:26:31.642Z,37.60
2018-12-16T20:28:59.402Z,40.33
2018-12-16T20:31:27.363Z,38.63
2018-12-16T20:33:56.014Z,37.50
2018-12-16T20:36:23.682Z,43.97
2018-12-16T20:38:51.465Z,48.20
2018-12-16T20:41:19.126Z,50.27
2018-12-16T20:43:47.175Z,49.73
2018-12-16T20:46:15.451Z,52.67
2018-12-16T20:48:43.055Z,51.77
2018-12-16T20:51:10.605Z,50.33
2018-12-16T20:53:38.221Z,54.47
2018-12-16T20:56:05.908Z,64.57
2018-12-16T20:58:33.668Z,61.77
2018-12-16T21:01:01.346Z,64.77
2018-12-16T21:03:29.299Z,63.47
2018-12-16T21:05:57.154Z,63.23
2018-12-16T21:08:24.862Z,67.77
2018-12-16T21:10:52.400Z,65.90
2018-12-16T21:13:38.491Z,69.03
2018-12-16T21:16:14.634Z,65.37
2018-12-16T21:18:42.390Z,68.20
2018-12-16T21:21:09.986Z,68.47
2018-12-16T21:23:37.596Z,67.37
2018-12-16T21:26:05.359Z,71.30
2018-12-16T21:28:33.053Z,73.23
2018-12-16T21:31:01.038Z,67.00
2018-12-16T21:33:29.354Z,63.97
2018-12-16T21:36:04.581Z,63.83
2018-12-16T21:38:33.336Z,63.07
2018-12-16T21:41:00.915Z,65.03
2018-12-16T21:43:28.663Z,60.13
2018-12-16T21:45:56.487Z,63.70
2018-12-16T21:48:24.149Z,58.80
2018-12-16T21:50:51.817Z,59.33
2018-12-16T21:53:19.710Z,62.00
2018-12-16T21:55:47.556Z,60.53
2018-12-16T21:58:15.161Z,62.43
2018-12-16T22:00:42.772Z,67.67
2018-12-16T22:03:10.402Z,66.27
2018-12-16T22:05:38.271Z,58.73
2018-12-16T22:08:13.491Z,78.63
2018-12-16T22:10:44.705Z,53.87
2018-12-16T22:13:12.395Z,53.33
2018-12-16T22:15:40.269Z,52.80
2018-12-16T22:18:15.999Z,51.67
2018-12-16T22:20:58.125Z,55.80
2018-12-16T22:28:35.401Z,56.93
2018-12-16T22:31:11.119Z,52.63
2018-12-16T22:33:46.286Z,49.80
2018-12-16T22:36:21.832Z,53.67
2018-12-16T22:38:57.098Z,49.37
2018-12-16T22:41:32.289Z,50.17
2018-12-16T22:44:07.376Z,46.00
2018-12-16T22:46:43.215Z,56.90
2018-12-16T22:49:10.977Z,47.13
2018-12-16T22:51:46.810Z,50.00
2018-12-16T22:54:21.542Z,50.43
2018-12-16T22:56:56.318Z,49.30
2018-12-16T22:59:31.619Z,51.00
2018-12-16T23:02:07.448Z,45.57
2018-12-16T23:04:42.422Z,51.40
2018-12-16T23:07:18.516Z,49.73
2018-12-16T23:09:53.785Z,49.03
2018-12-16T23:12:31.239Z,50.37
2018-12-16T23:15:06.720Z,54.83
2018-12-16T23:17:41.550Z,52.37
2018-12-16T23:20:19.186Z,53.70
2018-12-16T23:22:55.031Z,52.27
2018-12-16T23:25:22.650Z,45.30
2018-12-16T23:27:54.192Z,52.40
2018-12-16T23:30:20.202Z,48.13
2018-12-16T23:32:47.788Z,42.73
2018-12-16T23:35:15.386Z,42.37
2018-12-16T23:37:42.995Z,42.47
2018-12-16T23:40:10.650Z,38.83
2018-12-16T23:42:38.395Z,40.83
2018-12-16T23:45:07.359Z,42.57
2018-12-16T23:47:35.289Z,47.50
2018-12-16T23:50:03.380Z,51.77
2018-12-16T23:52:31.307Z,51.47
2018-12-16T23:54:59.193Z,49.80
2018-12-16T23:57:27.094Z,50.40
2018-12-16T23:59:55.243Z,49.67
